Time;durP1;ratioP1;P1;durP2;ratioP2;P2;SDS_P1;SDS_P2;PMS_P1;PMS_P2;Temp;Humidity;BMP_temperature;BMP_pressure;BME280_temperature;BME280_humidity;BME280_pressure;Samples;Min_cycle;Max_cycle;Signal;HPM_P1;HPM_P2
2023/05/29 04:22:32;;;;;;;4.15;2.08;;;;;;;12.80;85.82;100305.63;5089568;28;20332;-69
2023/05/29 04:24:57;;;;;;;3.70;2.25;;;;;;;12.84;85.44;100306.06;5088246;28;20063;-69
2023/05/29 04:27:22;;;;;;;6.20;2.55;;;;;;;12.88;85.55;100307.34;5088107;28;20051;-68
2023/05/29 04:29:48;;;;;;;4.00;2.42;;;;;;;12.89;85.25;100309.00;5089062;28;20044;-69
2023/05/29 04:32:13;;;;;;;3.75;2.30;;;;;;;12.87;85.92;100314.56;5088234;28;20033;-68
2023/05/29 04:34:39;;;;;;;5.15;3.00;;;;;;;12.92;85.78;100322.03;5089443;28;20037;-68
2023/05/29 04:37:05;;;;;;;5.35;2.58;;;;;;;13.00;86.30;100324.59;5089338;28;20044;-69
2023/05/29 04:39:32;;;;;;;3.55;2.60;;;;;;;13.00;86.61;100325.41;5087706;28;20044;-69
2023/05/29 04:42:01;;;;;;;4.28;2.55;;;;;;;13.01;88.60;100326.25;5087833;28;20040;-69
2023/05/29 04:44:28;;;;;;;4.38;2.67;;;;;;;13.01;88.41;100334.25;5087884;28;20515;-68
2023/05/29 04:46:54;;;;;;;5.15;2.83;;;;;;;13.09;87.59;100333.31;5087805;28;20058;-69
2023/05/29 04:49:20;;;;;;;4.85;2.55;;;;;;;13.09;88.25;100336.81;5070668;28;20048;-68
2023/05/29 04:51:46;;;;;;;5.78;2.55;;;;;;;13.11;88.28;100342.00;5087710;28;20035;-69
2023/05/29 04:54:12;;;;;;;6.00;2.58;;;;;;;13.12;88.15;100335.63;5087921;28;20028;-68
2023/05/29 04:56:40;;;;;;;4.68;2.50;;;;;;;13.26;87.19;100349.00;5087611;28;20059;-68
2023/05/29 04:59:07;;;;;;;3.90;2.30;;;;;;;13.28;88.83;100352.31;5087288;28;20127;-69
2023/05/29 05:01:35;;;;;;;6.60;2.53;;;;;;;13.35;88.45;100349.69;5087505;28;20556;-69
2023/05/29 05:04:01;;;;;;;3.22;2.20;;;;;;;13.41;87.00;100353.47;5085875;28;20059;-69
2023/05/29 05:06:26;;;;;;;4.57;2.60;;;;;;;13.49;86.44;100353.34;5087347;28;20465;-69
2023/05/29 05:08:53;;;;;;;5.93;2.45;;;;;;;13.52;84.74;100358.34;5088059;28;20086;-69
2023/05/29 05:11:20;;;;;;;5.57;2.70;;;;;;;13.59;84.96;100364.59;5087397;28;20020;-68
2023/05/29 05:13:46;;;;;;;4.80;2.63;;;;;;;13.70;83.97;100365.94;5087231;28;21189;-69
2023/05/29 05:16:12;;;;;;;3.85;2.40;;;;;;;13.85;83.00;100364.03;5087105;28;20126;-69
2023/05/29 05:18:38;;;;;;;6.05;2.50;;;;;;;13.88;82.15;100366.31;5087061;28;20039;-69
2023/05/29 05:21:07;;;;;;;5.25;2.40;;;;;;;13.95;81.85;100366.38;5086867;28;20501;-69
2023/05/29 05:23:33;;;;;;;4.50;2.55;;;;;;;13.97;81.86;100364.34;5087181;28;20135;-69
2023/05/29 05:25:59;;;;;;;3.53;2.30;;;;;;;14.03;81.16;100363.59;5086992;28;20131;-69
2023/05/29 05:28:25;;;;;;;5.28;2.75;;;;;;;14.05;81.75;100359.69;5086702;28;20033;-69
2023/05/29 05:30:51;;;;;;;4.30;2.50;;;;;;;14.11;79.75;100366.94;5086948;28;20119;-69
2023/05/29 05:33:17;;;;;;;5.78;3.28;;;;;;;14.16;78.43;100374.41;5076849;28;20032;-69
2023/05/29 05:35:43;;;;;;;5.97;3.10;;;;;;;14.24;77.90;100374.25;5056733;28;20047;-69
2023/05/29 05:38:09;;;;;;;4.95;2.85;;;;;;;14.29;78.15;100387.09;5073434;28;20131;-69
2023/05/29 05:40:34;;;;;;;4.55;2.65;;;;;;;14.25;79.05;100389.31;5072978;28;20062;-68
2023/05/29 05:43:10;;;;;;;3.20;2.00;;;;;;;14.33;78.29;100382.97;5073520;28;20037;-69
2023/05/29 05:45:54;;;;;;;4.68;2.40;;;;;;;14.35;78.18;100383.63;5073267;28;20086;-69
2023/05/29 05:48:20;;;;;;;4.40;3.03;;;;;;;14.49;78.70;100385.41;5073077;28;20032;-69
2023/05/29 05:50:45;;;;;;;3.75;2.22;;;;;;;14.63;77.14;100383.66;5073151;28;20029;-69
2023/05/29 05:53:11;;;;;;;6.50;2.58;;;;;;;14.62;76.75;100390.88;5073031;28;20043;-68
2023/05/29 05:55:36;;;;;;;4.78;2.72;;;;;;;14.68;77.92;100397.28;5073058;28;20037;-69
2023/05/29 05:58:03;;;;;;;6.47;2.50;;;;;;;14.76;77.52;100399.00;5072830;28;20036;-67
2023/05/29 06:00:29;;;;;;;4.53;2.50;;;;;;;14.90;76.80;100400.72;5072640;28;20350;-63
2023/05/29 06:02:56;;;;;;;4.38;2.15;;;;;;;14.95;75.25;100386.72;5072988;28;20040;-63
2023/05/29 06:05:42;;;;;;;5.13;2.65;;;;;;;15.05;75.02;100409.47;5059682;28;20052;-63
2023/05/29 06:08:08;;;;;;;3.53;2.17;;;;;;;15.11;75.66;100407.84;5072821;28;20047;-62
2023/05/29 06:10:34;;;;;;;4.93;2.53;;;;;;;15.13;77.06;100409.31;5047444;28;20036;-61
2023/05/29 06:13:00;;;;;;;4.75;2.63;;;;;;;15.20;75.89;100414.72;5072650;28;20037;-63
2023/05/29 06:15:35;;;;;;;3.60;2.25;;;;;;;15.30;76.61;100415.16;5072725;28;20042;-63
2023/05/29 06:18:01;;;;;;;3.72;2.40;;;;;;;15.31;75.39;100416.00;5072615;28;20420;-63
2023/05/29 06:20:29;;;;;;;2.55;2.00;;;;;;;15.36;73.77;100413.53;5072090;28;20526;-49
2023/05/29 06:22:55;;;;;;;6.07;2.83;;;;;;;15.39;72.88;100416.66;5073875;28;20036;-54
2023/05/29 06:25:21;;;;;;;2.78;2.25;;;;;;;15.46;73.02;100414.81;5072571;28;20032;-61
2023/05/29 06:27:46;;;;;;;4.13;2.58;;;;;;;15.62;74.12;100426.25;5055838;28;20469;-60
2023/05/29 06:30:13;;;;;;;5.82;2.58;;;;;;;15.67;72.53;100416.56;5072003;28;20110;-61
2023/05/29 06:32:38;;;;;;;3.72;2.33;;;;;;;15.76;72.00;100422.56;5072380;28;20039;-62
2023/05/29 06:35:07;;;;;;;3.60;2.10;;;;;;;15.82;70.41;100419.09;5072406;28;20079;-62
2023/05/29 06:37:32;;;;;;;2.72;1.83;;;;;;;15.93;68.91;100414.97;5072301;28;20448;-59
2023/05/29 06:39:58;;;;;;;4.45;2.03;;;;;;;16.12;67.80;100418.72;5071803;28;20093;-59
2023/05/29 06:42:24;;;;;;;2.72;1.92;;;;;;;15.96;65.41;100393.06;5072412;28;20481;-59
2023/05/29 06:44:56;;;;;;;3.33;2.00;;;;;;;16.22;65.46;100419.13;5071112;28;20036;-61
2023/05/29 06:47:22;;;;;;;3.22;1.90;;;;;;;16.22;65.17;100409.22;5073174;28;20044;-59
2023/05/29 06:49:47;;;;;;;3.22;1.95;;;;;;;16.32;63.63;100416.88;5071726;28;20043;-58
2023/05/29 06:52:12;;;;;;;3.42;1.75;;;;;;;16.33;63.46;100415.84;5071888;28;20497;-61
2023/05/29 06:55:10;;;;;;;4.43;1.52;;;;;;;16.53;62.78;100421.22;5072995;28;20123;-60
2023/05/29 06:57:36;;;;;;;2.58;1.92;;;;;;;16.58;60.24;100423.28;5071833;28;20119;-60
2023/05/29 07:00:03;;;;;;;3.50;1.85;;;;;;;16.62;61.20;100419.13;5071496;28;20185;-59
2023/05/29 07:02:29;;;;;;;3.90;1.50;;;;;;;16.78;62.74;100411.50;5071809;28;20033;-60
2023/05/29 07:04:57;;;;;;;4.90;2.05;;;;;;;16.89;62.30;100411.88;5071863;28;20052;-61
2023/05/29 07:07:22;;;;;;;2.95;1.70;;;;;;;17.06;62.81;100419.28;5071630;28;20040;-60
2023/05/29 07:09:47;;;;;;;3.05;1.95;;;;;;;17.07;61.51;100412.03;5072651;28;20443;-59
2023/05/29 07:12:14;;;;;;;2.70;1.63;;;;;;;17.18;61.52;100418.63;5071440;28;20064;-60
2023/05/29 07:14:39;;;;;;;2.60;1.77;;;;;;;17.16;60.30;100426.09;5072737;28;20120;-60
2023/05/29 07:17:05;;;;;;;3.95;2.03;;;;;;;17.30;60.94;100419.63;5071356;28;20036;-60
2023/05/29 07:19:34;;;;;;;2.35;1.75;;;;;;;17.38;59.84;100426.63;5071056;28;20047;-61
2023/05/29 07:22:01;;;;;;;6.35;2.17;;;;;;;17.44;60.88;100428.47;5071381;28;20110;-59
2023/05/29 07:24:26;;;;;;;3.65;2.17;;;;;;;17.59;60.25;100424.47;5071330;28;20642;-62
2023/05/29 07:26:52;;;;;;;4.97;1.98;;;;;;;17.73;59.21;100424.44;5071227;28;20037;-60
2023/05/29 07:29:20;;;;;;;2.42;1.67;;;;;;;17.90;58.16;100426.41;5070924;28;20127;-60
2023/05/29 07:31:46;;;;;;;3.67;1.90;;;;;;;17.93;57.60;100427.00;5071137;28;20036;-60
2023/05/29 07:34:11;;;;;;;4.85;2.33;;;;;;;18.12;56.97;100429.56;5071210;28;20039;-62
2023/05/29 07:37:05;;;;;;;3.15;1.90;;;;;;;18.17;55.94;100427.03;5071137;28;20106;-60
2023/05/29 07:39:33;;;;;;;3.28;2.13;;;;;;;18.30;54.91;100436.09;5070791;28;20040;-62
2023/05/29 07:42:03;;;;;;;4.00;2.20;;;;;;;18.37;54.79;100428.75;5071025;28;20040;-59
2023/05/29 07:44:29;;;;;;;3.75;1.60;;;;;;;18.36;55.43;100424.44;5071114;28;20626;-62
2023/05/29 07:46:55;;;;;;;4.38;1.90;;;;;;;18.43;55.47;100435.97;5070944;28;20043;-50
2023/05/29 07:49:43;;;;;;;2.80;2.00;;;;;;;18.60;56.00;100436.25;5068736;28;20063;-61
2023/05/29 07:52:09;;;;;;;3.17;2.03;;;;;;;18.61;54.73;100435.22;5070776;28;20041;-61
2023/05/29 07:54:35;;;;;;;2.38;1.77;;;;;;;18.66;54.67;100435.38;5072090;28;20036;-62
2023/05/29 07:57:09;;;;;;;3.97;1.60;;;;;;;18.63;53.36;100442.03;5070669;28;20457;-62
2023/05/29 07:59:41;;;;;;;4.72;1.77;;;;;;;18.74;53.39;100439.69;5070596;28;20032;-60
2023/05/29 08:02:08;;;;;;;2.53;1.60;;;;;;;18.67;53.88;100437.88;5070923;28;20063;-59
2023/05/29 08:04:55;;;;;;;3.03;2.03;;;;;;;18.91;53.20;100438.09;5070684;28;20089;-61
2023/05/29 08:07:22;;;;;;;;;;;;;;;19.04;53.32;100432.53;5070985;28;20051;-61
2023/05/29 08:09:48;;;;;;;2.50;1.70;;;;;;;19.25;52.62;100426.69;5070517;28;20015;-59
2023/05/29 08:12:14;;;;;;;2.42;1.75;;;;;;;19.38;52.36;100428.41;5070519;28;20036;-61
2023/05/29 08:14:40;;;;;;;5.18;2.08;;;;;;;19.42;52.60;100435.00;5070672;28;20098;-61
2023/05/29 08:17:06;;;;;;;3.90;2.10;;;;;;;19.66;52.30;100424.34;5070416;28;20477;-58
2023/05/29 08:19:32;;;;;;;2.35;1.60;;;;;;;19.71;51.42;100433.41;5071643;28;20114;-60
2023/05/29 08:21:57;;;;;;;2.20;1.48;;;;;;;19.82;51.49;100425.56;5072046;28;20493;-62
2023/05/29 08:24:22;;;;;;;4.45;1.70;;;;;;;19.69;51.60;100424.72;5071717;28;20131;-62
2023/05/29 08:26:48;;;;;;;2.95;1.98;;;;;;;19.96;51.85;100435.16;5071861;28;20075;-59
2023/05/29 08:29:13;;;;;;;4.20;2.17;;;;;;;20.14;51.53;100436.94;5071540;28;20095;-59
2023/05/29 08:31:39;;;;;;;3.67;2.15;;;;;;;20.27;51.27;100428.63;5071698;28;20393;-59
2023/05/29 08:34:06;;;;;;;2.58;1.60;;;;;;;20.42;51.92;100433.63;5071815;28;20044;-58
2023/05/29 08:36:32;;;;;;;2.63;1.92;;;;;;;20.55;50.78;100431.53;5071752;28;20115;-58
2023/05/29 08:38:58;;;;;;;3.33;1.60;;;;;;;20.57;50.58;100428.59;5071287;28;20040;-58
2023/05/29 08:41:39;;;;;;;3.45;2.38;;;;;;;20.58;50.77;100420.22;5071750;28;20029;-61
2023/05/29 08:44:07;;;;;;;2.88;2.40;;;;;;;20.64;50.58;100414.94;5071560;28;20029;-60
2023/05/29 08:46:33;;;;;;;3.45;2.10;;;;;;;20.58;50.61;100414.00;5071786;28;20039;-58
2023/05/29 08:49:01;;;;;;;3.88;2.00;;;;;;;20.65;49.67;100424.72;5071505;28;20044;-58
2023/05/29 08:51:32;;;;;;;3.63;1.77;;;;;;;20.74;49.64;100426.03;5071458;28;20063;-59
2023/05/29 08:53:58;;;;;;;6.72;2.33;;;;;;;20.98;48.92;100422.22;5071508;28;20028;-60
2023/05/29 08:56:23;;;;;;;4.05;2.10;;;;;;;21.31;49.70;100427.00;5071439;28;20021;-59
2023/05/29 08:58:50;;;;;;;3.00;1.73;;;;;;;21.56;48.73;100426.72;5071210;28;20043;-59
2023/05/29 09:01:16;;;;;;;3.43;1.77;;;;;;;21.49;47.91;100431.44;5071663;28;20167;-63
2023/05/29 09:03:42;;;;;;;2.58;1.90;;;;;;;21.78;47.64;100429.59;5071827;28;20092;-61
2023/05/29 09:06:08;;;;;;;2.72;1.60;;;;;;;21.81;47.43;100423.66;5071427;28;20538;-62
2023/05/29 09:08:35;;;;;;;3.10;2.00;;;;;;;21.75;46.54;100421.94;5073632;28;20059;-61
2023/05/29 09:11:00;;;;;;;3.35;2.05;;;;;;;21.95;46.21;100422.28;5075002;28;20072;-62
2023/05/29 09:13:28;;;;;;;3.30;1.83;;;;;;;22.06;46.15;100423.31;5075285;28;20089;-60
2023/05/29 09:15:58;;;;;;;2.63;1.77;;;;;;;22.41;44.91;100428.53;5074957;28;20401;-61
2023/05/29 09:18:24;;;;;;;4.10;1.98;;;;;;;22.27;44.28;100424.50;5074863;28;20387;-60
2023/05/29 09:20:49;;;;;;;3.17;1.90;;;;;;;22.52;44.78;100426.00;5074895;28;20051;-61
2023/05/29 09:23:14;;;;;;;3.90;1.77;;;;;;;22.83;44.42;100428.09;5073696;28;20036;-60
2023/05/29 09:25:42;;;;;;;4.90;2.42;;;;;;;23.00;44.19;100431.63;5074849;28;20039;-62
2023/05/29 09:28:08;;;;;;;2.17;1.67;;;;;;;23.27;44.08;100433.59;5075148;28;20033;-60
2023/05/29 09:30:38;;;;;;;2.88;1.90;;;;;;;23.09;42.97;100425.78;5074510;28;20056;-62
2023/05/29 09:33:05;;;;;;;3.30;1.75;;;;;;;23.30;43.14;100427.69;5074690;28;20047;-61
2023/05/29 09:35:44;;;;;;;4.00;2.10;;;;;;;23.71;42.44;100429.00;5074687;28;20063;-62
2023/05/29 09:38:17;;;;;;;3.38;2.15;;;;;;;23.90;41.51;100428.66;5074634;28;20485;-62
2023/05/29 09:40:46;;;;;;;3.22;2.00;;;;;;;24.01;41.96;100423.06;5074613;28;20032;-62
2023/05/29 09:43:17;;;;;;;2.97;2.00;;;;;;;23.88;40.88;100428.91;5074573;28;20098;-62
2023/05/29 09:45:51;;;;;;;3.63;2.08;;;;;;;24.32;40.96;100434.19;5074681;28;20390;-61
2023/05/29 09:48:18;;;;;;;4.13;2.00;;;;;;;24.33;40.53;100439.44;5074274;28;20042;-61
2023/05/29 09:50:47;;;;;;;;;;;;;;;24.26;40.17;100429.81;5074743;28;20032;-61
2023/05/29 09:53:24;;;;;;;3.25;2.13;;;;;;;24.23;40.89;100424.88;5074129;28;19923;-63
2023/05/29 09:55:51;;;;;;;3.45;2.42;;;;;;;24.75;40.61;100432.38;5074465;28;20037;-50
2023/05/29 09:58:24;;;;;;;2.63;1.85;;;;;;;24.99;40.61;100422.72;5074092;28;20556;-55
2023/05/29 10:00:51;;;;;;;3.20;2.38;;;;;;;25.21;44.91;100428.03;5074436;28;20028;-49
2023/05/29 10:03:17;;;;;;;3.70;2.22;;;;;;;25.15;39.03;100423.63;5074189;28;20105;-63
2023/05/29 10:05:49;;;;;;;2.50;1.90;;;;;;;25.26;38.72;100413.63;5074147;28;20079;-64
2023/05/29 10:08:17;;;;;;;4.68;2.15;;;;;;;25.78;38.36;100407.25;5073921;28;20040;-66
2023/05/29 10:10:47;;;;;;;3.75;2.13;;;;;;;25.55;37.64;100401.16;5073963;28;20041;-63
2023/05/29 10:13:14;;;;;;;4.53;2.20;;;;;;;25.74;37.65;100406.97;5072763;28;20040;-63
2023/05/29 10:15:51;;;;;;;4.60;1.88;;;;;;;26.03;40.20;100404.56;5073917;28;20432;-64
2023/05/29 10:18:33;;;;;;;2.72;1.73;;;;;;;25.65;37.23;100394.94;5073471;28;20532;-64
2023/05/29 10:21:01;;;;;;;3.72;1.98;;;;;;;26.04;37.86;100392.56;5073929;28;20036;-64
2023/05/29 10:23:29;;;;;;;2.85;1.88;;;;;;;25.81;37.63;100393.88;5073829;28;20028;-64
2023/05/29 10:26:04;;;;;;;3.15;1.88;;;;;;;26.54;37.30;100393.66;5061651;28;20054;-64
2023/05/29 10:28:30;;;;;;;3.10;2.08;;;;;;;26.19;37.91;100395.28;5063371;28;20402;-64
2023/05/29 10:31:08;;;;;;;3.23;1.90;;;;;;;26.24;35.41;100384.38;5070851;28;20033;-65
2023/05/29 10:33:33;;;;;;;2.42;1.67;;;;;;;26.61;35.66;100388.75;5073660;28;20056;-64
2023/05/29 10:36:14;;;;;;;3.78;2.00;;;;;;;27.04;36.58;100386.41;5073586;28;20075;-65
2023/05/29 10:38:45;;;;;;;3.42;1.95;;;;;;;27.14;35.16;100388.34;5073100;28;20127;-62
2023/05/29 10:41:28;;;;;;;4.00;2.00;;;;;;;27.47;34.03;100386.81;5073543;28;20531;-65
2023/05/29 10:43:55;;;;;;;3.67;2.00;;;;;;;27.60;38.75;100383.44;5073473;28;20058;-65
2023/05/29 10:46:20;;;;;;;1.92;1.73;;;;;;;28.05;36.53;100387.81;5073358;28;20469;-63
2023/05/29 10:48:49;;;;;;;2.45;1.75;;;;;;;27.81;32.85;100387.72;5073084;28;20041;-62
2023/05/29 10:51:26;;;;;;;3.78;2.10;;;;;;;28.44;32.47;100394.38;5073129;28;20127;-64
2023/05/29 10:53:52;;;;;;;;;;;;;;;28.44;33.11;100394.38;5073750;28;20119;-62
2023/05/29 10:56:28;;;;;;;5.20;2.33;;;;;;;28.59;32.78;100395.03;5072671;28;20007;-63
2023/05/29 10:58:57;;;;;;;3.15;2.42;;;;;;;28.69;32.20;100382.31;5055554;28;20040;-63
2023/05/29 11:01:25;;;;;;;3.35;2.00;;;;;;;29.02;32.37;100383.38;5058448;28;20056;-65
2023/05/29 11:03:52;;;;;;;3.00;1.80;;;;;;;29.02;31.28;100380.63;5062163;28;20033;-63
2023/05/29 11:06:23;;;;;;;3.80;1.80;;;;;;;29.07;31.38;100372.31;5069636;28;20481;-63
2023/05/29 11:08:56;;;;;;;2.53;1.83;;;;;;;29.29;31.17;100382.75;5069695;28;20044;-64
2023/05/29 11:11:27;;;;;;;2.75;1.80;;;;;;;28.99;32.01;100362.00;5065812;28;20041;-64
2023/05/29 11:13:55;;;;;;;3.42;1.80;;;;;;;29.48;29.89;100367.13;5052852;28;20036;-64
2023/05/29 11:16:23;;;;;;;;;;;;;;;28.74;30.86;100374.84;5053171;28;20072;-62
2023/05/29 11:18:48;;;;;;;2.28;1.60;;;;;;;29.40;31.23;100382.31;5052557;28;19951;-61
2023/05/29 11:21:44;;;;;;;4.07;1.75;;;;;;;29.71;29.94;100376.41;5052627;28;20075;-62
2023/05/29 11:24:20;;;;;;;4.67;1.87;;;;;;;29.53;28.43;100366.25;5052788;28;20033;-63
2023/05/29 11:26:45;;;;;;;4.18;1.73;;;;;;;28.62;29.80;100368.97;5052539;28;20337;-63
2023/05/29 11:29:13;;;;;;;2.10;1.45;;;;;;;29.00;29.85;100377.34;5068682;28;20036;-64
2023/05/29 11:31:39;;;;;;;;;;;;;;;29.42;29.13;100382.03;5072513;28;20408;-62
2023/05/29 11:34:06;;;;;;;2.72;1.67;;;;;;;29.57;28.22;100376.34;5069366;28;19999;-61
2023/05/29 11:36:32;;;;;;;;;;;;;;;29.56;28.25;100382.94;5072676;28;20474;-62
2023/05/29 11:38:58;;;;;;;3.20;1.52;;;;;;;29.16;28.89;100387.84;5072041;28;19965;-63
2023/05/29 11:41:25;;;;;;;2.63;1.83;;;;;;;29.69;28.24;100370.41;5072390;28;20485;-62
2023/05/29 11:44:02;;;;;;;2.67;2.00;;;;;;;29.31;28.65;100375.84;5072392;28;20035;-62
2023/05/29 11:46:30;;;;;;;3.58;1.80;;;;;;;29.96;28.33;100378.75;5072159;28;20504;-65
2023/05/29 11:48:56;;;;;;;3.53;1.77;;;;;;;29.65;27.36;100372.09;5071993;28;20167;-62
2023/05/29 11:51:22;;;;;;;3.63;1.83;;;;;;;29.64;28.83;100367.75;5070925;28;20135;-62
2023/05/29 11:53:49;;;;;;;3.63;1.98;;;;;;;29.29;28.34;100369.03;5072225;28;20047;-63
2023/05/29 11:56:14;;;;;;;3.22;1.90;;;;;;;29.55;28.97;100361.31;5072153;28;20175;-63
2023/05/29 11:58:40;;;;;;;1.73;1.40;;;;;;;30.47;30.70;100360.63;5071869;28;20115;-62
2023/05/29 12:01:09;;;;;;;4.43;2.10;;;;;;;31.06;27.26;100370.75;5064937;28;20028;-62
2023/05/29 12:03:41;;;;;;;2.28;1.80;;;;;;;30.82;26.03;100359.16;5061998;28;20037;-62
2023/05/29 12:06:10;;;;;;;2.40;1.70;;;;;;;31.75;24.74;100372.56;5061411;28;20483;-60
2023/05/29 12:08:36;;;;;;;3.28;2.00;;;;;;;31.85;24.43;100370.41;5061790;28;20033;-61
2023/05/29 12:11:02;;;;;;;3.42;1.98;;;;;;;31.23;25.26;100369.28;5060457;28;20112;-62
2023/05/29 12:13:28;;;;;;;3.60;2.43;;;;;;;31.71;24.44;100366.88;5062198;28;20039;-62
2023/05/29 12:15:57;;;;;;;3.60;2.03;;;;;;;30.23;25.30;100350.59;5061973;28;20044;-62
2023/05/29 12:18:23;;;;;;;4.53;2.53;;;;;;;30.65;25.35;100361.69;5058986;28;20045;-60
2023/05/29 12:20:48;;;;;;;5.63;2.80;;;;;;;31.29;25.71;100366.16;5060495;28;20547;-63
2023/05/29 12:23:14;;;;;;;4.20;2.10;;;;;;;30.84;26.71;100362.41;5062039;28;20041;-62
2023/05/29 12:25:39;;;;;;;2.60;1.80;;;;;;;30.62;25.53;100362.28;5060461;28;20033;-62
2023/05/29 12:28:05;;;;;;;3.58;1.90;;;;;;;30.90;26.29;100352.94;5061377;28;20075;-61
2023/05/29 12:30:36;;;;;;;3.33;1.80;;;;;;;31.63;24.01;100358.56;5061064;28;20482;-62
2023/05/29 12:33:02;;;;;;;2.63;2.03;;;;;;;31.33;25.95;100369.13;5060663;28;20180;-62
2023/05/29 12:35:29;;;;;;;2.97;1.80;;;;;;;31.76;24.74;100353.00;5061836;28;20158;-62
2023/05/29 12:37:59;;;;;;;4.20;2.10;;;;;;;31.69;23.88;100354.53;5061779;28;20044;-59
2023/05/29 12:40:26;;;;;;;3.83;1.92;;;;;;;30.82;25.97;100353.66;5060098;28;20098;-61
2023/05/29 12:43:06;;;;;;;3.38;2.05;;;;;;;31.45;25.94;100357.59;5061691;28;20051;-62
2023/05/29 12:45:33;;;;;;;2.17;1.55;;;;;;;32.06;24.52;100356.94;5065179;28;20029;-63
2023/05/29 12:48:03;;;;;;;3.17;1.60;;;;;;;32.42;24.17;100358.00;5066974;28;20036;-62
2023/05/29 12:50:39;;;;;;;2.08;1.50;;;;;;;32.58;23.71;100364.72;5064561;28;20033;-61
2023/05/29 12:53:07;;;;;;;2.43;1.67;;;;;;;32.24;23.88;100363.38;5064539;28;20112;-61
2023/05/29 12:55:36;;;;;;;5.95;1.92;;;;;;;32.47;23.78;100357.84;5064974;28;20068;-62
2023/05/29 12:58:03;;;;;;;3.08;2.00;;;;;;;32.02;22.29;100350.47;5066084;28;20036;-61
2023/05/29 13:00:30;;;;;;;4.07;1.80;;;;;;;32.30;23.34;100350.28;5064290;28;20178;-58
2023/05/29 13:02:55;;;;;;;3.13;1.80;;;;;;;32.77;21.61;100357.03;5064635;28;20063;-61
2023/05/29 13:05:22;;;;;;;2.90;1.63;;;;;;;32.26;22.93;100360.31;5065976;28;20063;-61
2023/05/29 13:07:51;;;;;;;3.50;1.60;;;;;;;31.54;22.14;100350.22;5064392;28;20033;-60
2023/05/29 13:10:17;;;;;;;3.58;1.85;;;;;;;31.85;23.22;100355.84;5064020;28;20540;-59
2023/05/29 13:12:44;;;;;;;3.17;1.60;;;;;;;29.63;23.96;100344.97;5065931;28;20033;-62
2023/05/29 13:15:11;;;;;;;2.92;1.83;;;;;;;30.79;23.76;100343.28;5064445;28;20653;-60
2023/05/29 13:17:37;;;;;;;2.92;1.65;;;;;;;30.00;24.17;100346.84;5064169;28;20090;-60
2023/05/29 13:20:06;;;;;;;2.80;1.60;;;;;;;30.23;24.65;100347.84;5065498;28;20032;-62
2023/05/29 13:22:32;;;;;;;2.95;2.03;;;;;;;29.18;26.13;100335.44;5064609;28;20033;-60
2023/05/29 13:24:59;;;;;;;2.05;1.40;;;;;;;29.22;26.79;100335.69;5074972;28;20089;-60
2023/05/29 13:27:25;;;;;;;2.42;1.85;;;;;;;29.09;26.30;100342.69;5074842;28;20050;-62
2023/05/29 13:29:51;;;;;;;2.35;1.40;;;;;;;28.98;26.55;100336.53;5074627;28;20498;-61
2023/05/29 13:32:16;;;;;;;2.85;1.73;;;;;;;28.51;27.30;100345.53;5074818;28;20115;-60
2023/05/29 13:34:42;;;;;;;2.75;1.65;;;;;;;28.75;26.02;100342.78;5056766;28;20072;-61
2023/05/29 13:37:07;;;;;;;3.30;1.67;;;;;;;28.42;26.61;100328.09;5054821;28;20037;-62
2023/05/29 13:39:33;;;;;;;3.08;1.70;;;;;;;28.26;27.81;100336.44;5054550;28;20037;-60
2023/05/29 13:41:58;;;;;;;2.10;1.77;;;;;;;27.95;28.21;100335.06;5054626;28;20086;-54
2023/05/29 13:44:24;;;;;;;3.03;1.40;;;;;;;27.92;26.80;100331.00;5054704;28;20103;-50
2023/05/29 13:46:50;;;;;;;3.42;1.85;;;;;;;27.61;27.60;100330.38;5057903;28;20072;-51
2023/05/29 13:49:16;;;;;;;2.80;1.77;;;;;;;27.72;27.84;100325.69;5058296;28;20111;-48
2023/05/29 13:51:41;;;;;;;3.22;1.55;;;;;;;27.72;28.12;100337.44;5054548;28;20041;-49
2023/05/29 13:54:07;;;;;;;2.15;1.45;;;;;;;27.73;27.81;100332.78;5054031;28;20426;-52
2023/05/29 13:56:32;;;;;;;2.60;1.50;;;;;;;27.40;27.73;100328.88;5054326;28;20033;-49
2023/05/29 13:59:03;;;;;;;3.35;1.77;;;;;;;27.14;28.77;100331.75;5054006;28;20076;-47
2023/05/29 14:01:29;;;;;;;2.38;1.73;;;;;;;26.83;29.56;100317.34;5054406;28;20111;-50
2023/05/29 14:03:54;;;;;;;3.50;1.90;;;;;;;26.61;29.77;100306.78;5054288;28;20565;-49
2023/05/29 14:06:19;;;;;;;4.25;1.58;;;;;;;26.97;29.95;100312.91;5054130;28;20397;-50
2023/05/29 14:08:45;;;;;;;2.38;1.55;;;;;;;26.99;30.30;100301.69;5053942;28;20047;-51
2023/05/29 14:11:10;;;;;;;2.08;1.25;;;;;;;26.96;29.24;100318.66;5053973;28;20048;-49
2023/05/29 14:13:35;;;;;;;2.13;1.45;;;;;;;26.98;28.87;100305.53;5054014;28;20123;-52
2023/05/29 14:16:01;;;;;;;2.75;1.70;;;;;;;27.08;28.49;100305.53;5053908;28;20146;-53
2023/05/29 14:18:26;;;;;;;2.22;1.40;;;;;;;26.88;28.75;100311.88;5053755;28;20470;-50
2023/05/29 14:20:52;;;;;;;2.78;1.50;;;;;;;26.58;29.09;100312.78;5052469;28;20033;-49
2023/05/29 14:23:17;;;;;;;2.78;1.58;;;;;;;26.74;29.05;100306.19;5053857;28;20033;-53
2023/05/29 14:25:43;;;;;;;2.25;1.55;;;;;;;26.69;29.91;100314.41;5073073;28;20493;-48
2023/05/29 14:28:08;;;;;;;4.70;1.63;;;;;;;26.92;29.71;100307.47;5073800;28;20089;-48
2023/05/29 14:30:34;;;;;;;2.75;1.60;;;;;;;26.70;28.77;100310.56;5073367;28;20142;-48
2023/05/29 14:32:59;;;;;;;2.97;1.55;;;;;;;26.62;28.76;100308.41;5073611;28;20439;-52
2023/05/29 14:35:25;;;;;;;2.42;1.48;;;;;;;26.60;28.90;100309.78;5073660;28;20032;-49
2023/05/29 14:37:51;;;;;;;1.92;1.23;;;;;;;26.51;28.42;100307.63;5070334;28;20465;-51
2023/05/29 14:40:16;;;;;;;1.90;1.35;;;;;;;26.70;28.89;100304.28;5072560;28;20082;-48
2023/05/29 14:42:41;;;;;;;1.63;1.13;;;;;;;26.75;29.02;100305.09;5065490;28;20103;-52
2023/05/29 14:45:07;;;;;;;3.10;1.48;;;;;;;26.66;29.24;100297.75;5064040;28;20052;-48
2023/05/29 14:47:33;;;;;;;1.83;1.40;;;;;;;26.73;29.02;100303.72;5061842;28;20099;-48
2023/05/29 14:49:58;;;;;;;2.40;1.48;;;;;;;26.56;29.51;100298.59;5064389;28;20111;-50
2023/05/29 14:52:24;;;;;;;2.00;1.40;;;;;;;26.44;29.02;100290.72;5073242;28;20041;-52
2023/05/29 14:54:49;;;;;;;3.47;2.22;;;;;;;26.56;29.78;100300.53;5072952;28;20482;-53
2023/05/29 14:57:15;;;;;;;2.08;1.48;;;;;;;26.43;30.54;100297.28;5071060;28;20386;-52
2023/05/29 14:59:40;;;;;;;2.75;1.33;;;;;;;26.32;30.25;100297.53;5072629;28;20516;-56
2023/05/29 15:02:05;;;;;;;2.65;1.80;;;;;;;26.41;31.20;100295.94;5072929;28;20094;-52
2023/05/29 15:04:31;;;;;;;2.00;1.40;;;;;;;26.64;29.50;100289.84;5069940;28;20056;-53
2023/05/29 15:06:56;;;;;;;2.67;1.60;;;;;;;26.41;30.77;100285.00;5067134;28;20078;-51
2023/05/29 15:09:22;;;;;;;1.85;1.48;;;;;;;26.46;30.96;100287.69;5072446;28;20048;-52
2023/05/29 15:11:47;;;;;;;2.03;1.33;;;;;;;26.57;30.13;100286.59;5071876;28;20029;-49
2023/05/29 15:14:13;;;;;;;4.47;1.50;;;;;;;26.55;30.17;100288.78;5063809;28;20036;-52
2023/05/29 15:16:39;;;;;;;2.55;1.45;;;;;;;26.53;29.05;100282.75;5070004;28;20383;-52
2023/05/29 15:19:06;;;;;;;2.95;1.60;;;;;;;26.24;29.91;100286.09;5070788;28;20055;-52
2023/05/29 15:21:31;;;;;;;2.38;1.40;;;;;;;26.35;29.88;100280.63;5071021;28;20397;-51
2023/05/29 15:23:56;;;;;;;3.22;1.45;;;;;;;26.19;30.07;100283.34;5072637;28;20040;-49
2023/05/29 15:26:22;;;;;;;2.92;1.42;;;;;;;26.19;33.09;100288.81;5067665;28;20108;-52
2023/05/29 15:28:47;;;;;;;2.42;1.50;;;;;;;26.34;30.46;100277.03;5064321;28;20078;-49
2023/05/29 15:31:13;;;;;;;3.42;1.48;;;;;;;26.41;30.73;100285.00;5069284;28;20040;-54
2023/05/29 15:33:39;;;;;;;3.17;1.60;;;;;;;26.45;30.00;100286.06;5066476;28;20078;-50
2023/05/29 15:36:05;;;;;;;2.05;1.42;;;;;;;26.38;29.29;100291.78;5055081;28;20060;-50
2023/05/29 15:38:32;;;;;;;2.78;1.67;;;;;;;26.41;29.62;100285.00;5052251;28;20564;-49
2023/05/29 15:40:58;;;;;;;2.10;1.80;;;;;;;26.24;30.66;100280.63;5052400;28;20068;-51
2023/05/29 15:43:25;;;;;;;2.42;1.80;;;;;;;26.25;30.91;100281.44;5052361;28;20124;-51
2023/05/29 15:45:50;;;;;;;4.60;1.90;;;;;;;26.41;30.42;100282.28;5052197;28;20127;-51
2023/05/29 15:48:16;;;;;;;2.88;2.20;;;;;;;26.19;30.52;100271.63;5052099;28;20079;-55
2023/05/29 15:50:41;;;;;;;2.80;1.70;;;;;;;26.20;31.83;100268.63;5052210;28;20546;-56